Cadiz, OH (43907)

08:30 PM EDT die 27o March, anno 2017 (GMT -0400)
Steubenville Pike | | Change Station

Elev 1237 ft 40.28 °N, 80.99 °W | Updated 5 seconds ago

Plerumque Nubila
Plerumque Nubila
62.8 °F
Feels Like 62.8 °F
N
0.0
Ventus Variabilis Ventus from Magis Zephyrus quam Aquilo
Gusts 0.0 mph

Hodie
High -- | Low -- °F
--% Chance of Precip.
Yesterday
High -- | Low -- °F
Precip. -- in
Pressio 29.90 in
Visibilitas 10.0 milia passuum
Clouds Serena
Frigus in quo Ros apparet 56 °F
Umor 77%
Rainfall 0.02 in
Snow Depth Not available.
7:15 AM 7:43 PM
Waning Crescent, 0% visible
METAR KHLG 272353Z 23005KT 10SM CLR 18/09 A2989 RMK AO2 SLP123 T01780094 10206 20178 56007
Pressio 29.90 in
Visibilitas 10.0 milia passuum
Clouds Serena
Frigus in quo Ros apparet 56 °F
Umor 77%
Rainfall 0.02 in
Snow Depth Not available.
7:15 AM 7:43 PM
Waning Crescent, 0% visible
METAR KHLG 272353Z 23005KT 10SM CLR 18/09 A2989 RMK AO2 SLP123 T01780094 10206 20178 56007

Get Severe Weather Alerts

Thanks for signing up!

Be on the lookout for a verification email in your inbox.

You'll start receiving the daily forecast at 8 AM.

×

10-Day Weather Forecast

Almanac

Astronomy

Mar. 27, 2017 Rise Set
Actual Time
Civil Twilight
Nautical Twilight
Astronomical Twilight
Moon
Length Of Visible Light
Length of Day
Tomorrow will be .
, % of the Moon is Illuminated

Today's Extremes

State Highs State Lows

Community

WunderPhotos

Upload Photos

1,962,540 photos uploaded!

WunderBlog® & News

Nearby

Air Quality

  Air Quality AQ Index Pollutant
Not available.

Snow Depth

Station Depth Elevation

Earthquake Activity

City Distance Mag. Time & Date
Minimum magnitude displayed is 2.5.

Earthquake Activity

City Distance Mag. Time & Date
Minimum magnitude displayed is 2.5.

Coastal Water Temperatures

Locus Calor

Stations

Nearby Weather Stations

Station Location Temp Frigus Venti Frigus in quo Ros apparet Umor Ventus Precip. Elev Renovata Type
                   

Watches & Warnings

There are currently no watches in effect.